Kamrar, IA (50132)

5:14 PM CDT on July 26, 2016 (GMT -0500)
Northern Webster City | | Change Station

Elev 1076 ft 42.48 °N, 93.82 °W | Updated 16 seconds ago

Scattered Clouds
Scattered Clouds
82.8 °F
Feels Like 86 °F
N
2.2
Wind Variable Wind from SSE

Today
High -- | Low -- °F
--% Chance of Precip.
Yesterday
High -- | Low -- °F
Precip. -- in
Pressure 30.06 in
Visibility 10.0 miles
Clouds Scattered Clouds 4200 ft
Heat Index 86 °F
Dew Point 68 °F
Humidity 61%
Rainfall 0.00 in
Snow Depth Not available.
6:01 AM 8:40 PM
Waning Gibbous, 50% visible
METAR KIFA 262155Z AUTO 14004KT 10SM SCT042 30/19 A3006 RMK AO2 T02960186
Pressure 30.06 in
Visibility 10.0 miles
Clouds Scattered Clouds 4200 ft
Heat Index 86 °F
Dew Point 68 °F
Humidity 61%
Rainfall 0.00 in
Snow Depth Not available.
6:01 AM 8:40 PM
Waning Gibbous, 50% visible
METAR KIFA 262155Z AUTO 14004KT 10SM SCT042 30/19 A3006 RMK AO2 T02960186

10-Day Weather Forecast

Almanac

Astronomy

Jul. 26, 2016 Rise Set
Actual Time
Civil Twilight
Nautical Twilight
Astronomical Twilight
Moon
Length of Visible Light
Length of Day
Tomorrow will be .
, % of the Moon is Illuminated

Today's Extremes

State Highs State Lows

Community

WunderPhotos

Upload Photos

1,927,702 photos uploaded!

WunderBlog® & News

Nearby

Air Quality

  Air Quality AQ Index Pollutant
Not available.

Snow Depth

Station Depth Elevation

Earthquake Activity

City Distance Mag. Time & Date
Minimum magnitude displayed is 2.5.

Coastal Water Temperatures

Place Temperature

Stations

Nearby Weather Stations

Station Location Temp. Windchill Dew Point Humidity Wind Precip. Elev Updated Type
                   

Watches & Warnings

There are currently no watches in effect.